sensor_id;sensor_type;location;lat;lon;timestamp;pressure;altitude;pressure_sealevel;temperature;humidity
19827;BME280;10074;52.018;4.726;2022-11-27T00:02:46;46467.88;;;-144.79;100.00
19827;BME280;10074;52.018;4.726;2022-11-27T00:07:46;46471.91;;;-144.79;100.00
19827;BME280;10074;52.018;4.726;2022-11-27T00:12:46;46467.88;;;-144.79;100.00
19827;BME280;10074;52.018;4.726;2022-11-27T00:17:47;46469.88;;;-144.79;100.00
19827;BME280;10074;52.018;4.726;2022-11-27T00:22:47;46469.88;;;-144.79;100.00
19827;BME280;10074;52.018;4.726;2022-11-27T00:27:48;46475.91;;;-144.79;100.00
19827;BME280;10074;52.018;4.726;2022-11-27T00:32:48;46471.91;;;-144.79;100.00
19827;BME280;10074;52.018;4.726;2022-11-27T00:37:48;46473.91;;;-144.79;100.00
19827;BME280;10074;52.018;4.726;2022-11-27T00:42:49;46473.91;;;-144.79;100.00
19827;BME280;10074;52.018;4.726;2022-11-27T00:47:49;46471.91;;;-144.79;100.00
19827;BME280;10074;52.018;4.726;2022-11-27T00:52:49;46471.91;;;-144.79;100.00
19827;BME280;10074;52.018;4.726;2022-11-27T00:57:50;46469.88;;;-144.79;100.00
19827;BME280;10074;52.018;4.726;2022-11-27T01:02:50;46471.91;;;-144.79;100.00
19827;BME280;10074;52.018;4.726;2022-11-27T01:07:51;46469.88;;;-144.79;100.00
19827;BME280;10074;52.018;4.726;2022-11-27T01:12:51;46467.88;;;-144.79;100.00
19827;BME280;10074;52.018;4.726;2022-11-27T01:17:51;46467.88;;;-144.79;100.00
19827;BME280;10074;52.018;4.726;2022-11-27T01:22:52;46471.91;;;-144.79;100.00
19827;BME280;10074;52.018;4.726;2022-11-27T01:27:52;46471.91;;;-144.79;100.00
19827;BME280;10074;52.018;4.726;2022-11-27T01:32:52;46467.88;;;-144.79;100.00
19827;BME280;10074;52.018;4.726;2022-11-27T01:37:53;46467.88;;;-144.79;100.00
19827;BME280;10074;52.018;4.726;2022-11-27T01:42:53;46471.91;;;-144.79;100.00
19827;BME280;10074;52.018;4.726;2022-11-27T01:47:56;46467.88;;;-144.79;100.00
19827;BME280;10074;52.018;4.726;2022-11-27T01:53:05;46469.88;;;-144.79;100.00
19827;BME280;10074;52.018;4.726;2022-11-27T01:58:10;46473.91;;;-144.79;100.00
19827;BME280;10074;52.018;4.726;2022-11-27T02:03:11;46471.91;;;-144.79;100.00
19827;BME280;10074;52.018;4.726;2022-11-27T02:08:13;46471.91;;;-144.79;100.00
19827;BME280;10074;52.018;4.726;2022-11-27T02:13:22;46473.91;;;-144.79;100.00
19827;BME280;10074;52.018;4.726;2022-11-27T02:24:12;46475.91;;;-144.79;100.00
19827;BME280;10074;52.018;4.726;2022-11-27T02:29:21;46471.91;;;-144.79;100.00
19827;BME280;10074;52.018;4.726;2022-11-27T02:39:54;46467.88;;;-144.79;100.00
19827;BME280;10074;52.018;4.726;2022-11-27T02:45:01;46467.88;;;-144.79;100.00
19827;BME280;10074;52.018;4.726;2022-11-27T02:50:03;46469.88;;;-144.79;100.00
19827;BME280;10074;52.018;4.726;2022-11-27T02:55:07;46471.91;;;-144.79;100.00
19827;BME280;10074;52.018;4.726;2022-11-27T03:00:10;46471.91;;;-144.79;100.00
19827;BME280;10074;52.018;4.726;2022-11-27T03:05:15;46469.88;;;-144.79;100.00
19827;BME280;10074;52.018;4.726;2022-11-27T03:10:27;46471.91;;;-144.79;100.00
19827;BME280;10074;52.018;4.726;2022-11-27T03:15:38;46467.88;;;-144.79;100.00
19827;BME280;10074;52.018;4.726;2022-11-27T03:20:42;46467.88;;;-144.79;100.00
19827;BME280;10074;52.018;4.726;2022-11-27T03:25:45;46473.91;;;-144.79;100.00
19827;BME280;10074;52.018;4.726;2022-11-27T03:30:45;46473.91;;;-144.79;100.00
19827;BME280;10074;52.018;4.726;2022-11-27T03:35:45;46467.88;;;-144.79;100.00
19827;BME280;10074;52.018;4.726;2022-11-27T03:40:59;46471.91;;;-144.79;100.00
19827;BME280;10074;52.018;4.726;2022-11-27T03:46:08;46469.88;;;-144.79;100.00
19827;BME280;10074;52.018;4.726;2022-11-27T03:56:36;46471.91;;;-144.79;100.00
19827;BME280;10074;52.018;4.726;2022-11-27T04:01:37;46469.88;;;-144.79;100.00
19827;BME280;10074;52.018;4.726;2022-11-27T04:06:38;46467.88;;;-144.79;100.00
19827;BME280;10074;52.018;4.726;2022-11-27T04:11:39;46473.91;;;-144.79;100.00
19827;BME280;10074;52.018;4.726;2022-11-27T04:16:39;46471.91;;;-144.79;100.00
19827;BME280;10074;52.018;4.726;2022-11-27T04:21:40;46467.88;;;-144.79;100.00
19827;BME280;10074;52.018;4.726;2022-11-27T04:26:40;46469.88;;;-144.79;100.00
19827;BME280;10074;52.018;4.726;2022-11-27T04:31:40;46467.88;;;-144.79;100.00
19827;BME280;10074;52.018;4.726;2022-11-27T04:36:40;46471.91;;;-144.79;100.00
19827;BME280;10074;52.018;4.726;2022-11-27T04:41:41;46463.88;;;-144.79;100.00
19827;BME280;10074;52.018;4.726;2022-11-27T04:46:41;46471.91;;;-144.79;100.00
19827;BME280;10074;52.018;4.726;2022-11-27T04:51:42;46469.88;;;-144.79;100.00
19827;BME280;10074;52.018;4.726;2022-11-27T04:56:42;46467.88;;;-144.79;100.00
19827;BME280;10074;52.018;4.726;2022-11-27T05:01:42;46461.88;;;-144.79;100.00
19827;BME280;10074;52.018;4.726;2022-11-27T05:06:43;46471.91;;;-144.79;100.00
19827;BME280;10074;52.018;4.726;2022-11-27T05:11:43;46469.88;;;-144.79;100.00
19827;BME280;10074;52.018;4.726;2022-11-27T05:16:49;46467.88;;;-144.79;100.00
19827;BME280;10074;52.018;4.726;2022-11-27T05:21:51;46471.91;;;-144.79;100.00
19827;BME280;10074;52.018;4.726;2022-11-27T05:26:52;46473.91;;;-144.79;100.00
19827;BME280;10074;52.018;4.726;2022-11-27T05:31:53;46471.91;;;-144.79;100.00
19827;BME280;10074;52.018;4.726;2022-11-27T05:36:53;46471.91;;;-144.79;100.00
19827;BME280;10074;52.018;4.726;2022-11-27T05:41:54;46471.91;;;-144.79;100.00
19827;BME280;10074;52.018;4.726;2022-11-27T05:46:54;46467.88;;;-144.79;100.00
19827;BME280;10074;52.018;4.726;2022-11-27T05:51:56;46471.91;;;-144.79;100.00
19827;BME280;10074;52.018;4.726;2022-11-27T05:56:56;46471.91;;;-144.79;100.00
19827;BME280;10074;52.018;4.726;2022-11-27T06:01:56;46467.88;;;-144.79;100.00
19827;BME280;10074;52.018;4.726;2022-11-27T06:06:57;46469.88;;;-144.79;100.00
19827;BME280;10074;52.018;4.726;2022-11-27T06:11:57;46471.91;;;-144.79;100.00
19827;BME280;10074;52.018;4.726;2022-11-27T06:16:57;46467.88;;;-144.79;100.00
19827;BME280;10074;52.018;4.726;2022-11-27T06:21:58;46467.88;;;-144.79;100.00
19827;BME280;10074;52.018;4.726;2022-11-27T06:26:58;46465.88;;;-144.79;100.00
19827;BME280;10074;52.018;4.726;2022-11-27T06:31:58;46465.88;;;-144.79;100.00
19827;BME280;10074;52.018;4.726;2022-11-27T06:36:59;46463.88;;;-144.79;100.00
19827;BME280;10074;52.018;4.726;2022-11-27T06:41:59;46465.88;;;-144.79;100.00
19827;BME280;10074;52.018;4.726;2022-11-27T06:46:59;46463.88;;;-144.79;100.00
19827;BME280;10074;52.018;4.726;2022-11-27T06:52:00;46463.88;;;-144.79;100.00
19827;BME280;10074;52.018;4.726;2022-11-27T06:57:00;46467.88;;;-144.79;100.00
19827;BME280;10074;52.018;4.726;2022-11-27T07:02:01;46463.88;;;-144.79;100.00
19827;BME280;10074;52.018;4.726;2022-11-27T07:07:01;46463.88;;;-144.79;100.00
19827;BME280;10074;52.018;4.726;2022-11-27T07:12:03;46461.88;;;-144.79;100.00
19827;BME280;10074;52.018;4.726;2022-11-27T07:17:04;46455.84;;;-144.79;100.00
19827;BME280;10074;52.018;4.726;2022-11-27T07:22:04;46465.88;;;-144.79;100.00
19827;BME280;10074;52.018;4.726;2022-11-27T07:27:04;46461.88;;;-144.79;100.00
19827;BME280;10074;52.018;4.726;2022-11-27T07:32:04;46459.88;;;-144.79;100.00
19827;BME280;10074;52.018;4.726;2022-11-27T07:37:05;46461.88;;;-144.79;100.00
19827;BME280;10074;52.018;4.726;2022-11-27T07:42:05;46461.88;;;-144.79;100.00
19827;BME280;10074;52.018;4.726;2022-11-27T07:47:05;46467.88;;;-144.79;100.00
19827;BME280;10074;52.018;4.726;2022-11-27T07:52:06;46459.88;;;-144.79;100.00
19827;BME280;10074;52.018;4.726;2022-11-27T07:57:06;46469.88;;;-144.79;100.00
19827;BME280;10074;52.018;4.726;2022-11-27T08:02:10;46463.88;;;-144.79;100.00
19827;BME280;10074;52.018;4.726;2022-11-27T08:07:11;46459.88;;;-144.79;100.00
19827;BME280;10074;52.018;4.726;2022-11-27T08:12:11;46459.88;;;-144.79;100.00
19827;BME280;10074;52.018;4.726;2022-11-27T08:17:12;46451.84;;;-144.79;100.00
19827;BME280;10074;52.018;4.726;2022-11-27T08:22:13;46433.81;;;-144.79;100.00
19827;BME280;10074;52.018;4.726;2022-11-27T08:27:14;46423.78;;;-144.79;100.00
19827;BME280;10074;52.018;4.726;2022-11-27T08:32:18;46397.72;;;-144.79;100.00
19827;BME280;10074;52.018;4.726;2022-11-27T08:37:21;46371.63;;;-144.79;100.00
19827;BME280;10074;52.018;4.726;2022-11-27T08:42:22;46361.63;;;-144.79;100.00
19827;BME280;10074;52.018;4.726;2022-11-27T08:47:22;46343.56;;;-144.79;100.00
19827;BME280;10074;52.018;4.726;2022-11-27T08:52:22;46339.56;;;-144.79;100.00
19827;BME280;10074;52.018;4.726;2022-11-27T08:57:23;46331.53;;;-144.79;100.00
19827;BME280;10074;52.018;4.726;2022-11-27T09:02:23;46327.53;;;-144.79;100.00
19827;BME280;10074;52.018;4.726;2022-11-27T09:07:25;46321.50;;;-144.79;100.00
19827;BME280;10074;52.018;4.726;2022-11-27T09:12:25;46323.53;;;-144.79;100.00
19827;BME280;10074;52.018;4.726;2022-11-27T09:17:26;46319.50;;;-144.79;100.00
19827;BME280;10074;52.018;4.726;2022-11-27T09:22:28;46315.50;;;-144.79;100.00
19827;BME280;10074;52.018;4.726;2022-11-27T09:27:28;46307.47;;;-144.79;100.00
19827;BME280;10074;52.018;4.726;2022-11-27T09:32:28;46313.50;;;-144.79;100.00
19827;BME280;10074;52.018;4.726;2022-11-27T09:37:29;46313.50;;;-144.79;100.00
19827;BME280;10074;52.018;4.726;2022-11-27T09:43:04;46309.47;;;-144.79;100.00
19827;BME280;10074;52.018;4.726;2022-11-27T09:48:13;46307.47;;;-144.79;100.00
19827;BME280;10074;52.018;4.726;2022-11-27T09:53:22;46305.47;;;-144.79;100.00
19827;BME280;10074;52.018;4.726;2022-11-27T09:58:34;46303.47;;;-144.79;100.00
19827;BME280;10074;52.018;4.726;2022-11-27T10:03:36;46307.47;;;-144.79;100.00
19827;BME280;10074;52.018;4.726;2022-11-27T10:08:57;46307.47;;;-144.79;100.00
19827;BME280;10074;52.018;4.726;2022-11-27T10:19:41;46301.47;;;-144.79;100.00
19827;BME280;10074;52.018;4.726;2022-11-27T10:30:03;46303.47;;;-144.79;100.00
19827;BME280;10074;52.018;4.726;2022-11-27T10:35:18;46315.50;;;-144.79;100.00
19827;BME280;10074;52.018;4.726;2022-11-27T10:40:27;46311.50;;;-144.79;100.00
19827;BME280;10074;52.018;4.726;2022-11-27T10:45:43;46315.50;;;-144.79;100.00
19827;BME280;10074;52.018;4.726;2022-11-27T10:50:45;46315.50;;;-144.79;100.00
19827;BME280;10074;52.018;4.726;2022-11-27T10:55:57;46327.53;;;-144.79;100.00
19827;BME280;10074;52.018;4.726;2022-11-27T11:01:08;46319.50;;;-144.79;100.00
19827;BME280;10074;52.018;4.726;2022-11-27T11:06:14;46319.50;;;-144.79;100.00
19827;BME280;10074;52.018;4.726;2022-11-27T11:11:24;46327.53;;;-144.79;100.00
19827;BME280;10074;52.018;4.726;2022-11-27T11:16:27;46327.53;;;-144.79;100.00
19827;BME280;10074;52.018;4.726;2022-11-27T11:21:38;46337.56;;;-144.79;100.00
19827;BME280;10074;52.018;4.726;2022-11-27T11:26:45;46343.56;;;-144.79;100.00
19827;BME280;10074;52.018;4.726;2022-11-27T11:31:46;46343.56;;;-144.79;100.00
19827;BME280;10074;52.018;4.726;2022-11-27T11:41:56;46359.59;;;-144.79;100.00
19827;BME280;10074;52.018;4.726;2022-11-27T11:46:56;46369.63;;;-144.79;100.00
19827;BME280;10074;52.018;4.726;2022-11-27T12:14:13;46371.63;;;-144.79;100.00
19827;BME280;10074;52.018;4.726;2022-11-27T12:19:45;46381.66;;;-144.79;100.00
19827;BME280;10074;52.018;4.726;2022-11-27T12:30:21;46395.69;;;-144.79;100.00
19827;BME280;10074;52.018;4.726;2022-11-27T12:35:43;46399.72;;;-144.79;100.00
19827;BME280;10074;52.018;4.726;2022-11-27T12:41:10;46399.72;;;-144.79;100.00
19827;BME280;10074;52.018;4.726;2022-11-27T12:46:17;46405.72;;;-144.79;100.00
19827;BME280;10074;52.018;4.726;2022-11-27T12:51:26;46407.72;;;-144.79;100.00
19827;BME280;10074;52.018;4.726;2022-11-27T12:56:32;46411.75;;;-144.79;100.00
19827;BME280;10074;52.018;4.726;2022-11-27T13:01:41;46407.72;;;-144.79;100.00
19827;BME280;10074;52.018;4.726;2022-11-27T13:06:49;46411.75;;;-144.79;100.00
19827;BME280;10074;52.018;4.726;2022-11-27T13:11:50;46419.75;;;-144.79;100.00
19827;BME280;10074;52.018;4.726;2022-11-27T13:17:03;46415.75;;;-144.79;100.00
19827;BME280;10074;52.018;4.726;2022-11-27T13:22:10;46425.78;;;-144.79;100.00
19827;BME280;10074;52.018;4.726;2022-11-27T13:27:14;46433.81;;;-144.79;100.00
19827;BME280;10074;52.018;4.726;2022-11-27T13:32:23;46433.81;;;-144.79;100.00
19827;BME280;10074;52.018;4.726;2022-11-27T13:37:38;46431.78;;;-144.79;100.00
19827;BME280;10074;52.018;4.726;2022-11-27T13:42:43;46427.78;;;-144.79;100.00
19827;BME280;10074;52.018;4.726;2022-11-27T13:47:44;46433.81;;;-144.79;100.00
19827;BME280;10074;52.018;4.726;2022-11-27T13:52:56;46441.81;;;-144.79;100.00
19827;BME280;10074;52.018;4.726;2022-11-27T13:58:01;46443.81;;;-144.79;100.00
19827;BME280;10074;52.018;4.726;2022-11-27T14:03:03;46439.81;;;-144.79;100.00
19827;BME280;10074;52.018;4.726;2022-11-27T14:08:16;46431.78;;;-144.79;100.00
19827;BME280;10074;52.018;4.726;2022-11-27T14:13:17;46429.78;;;-144.79;100.00
19827;BME280;10074;52.018;4.726;2022-11-27T14:18:19;46427.78;;;-144.79;100.00
19827;BME280;10074;52.018;4.726;2022-11-27T14:23:47;46419.75;;;-144.79;100.00
19827;BME280;10074;52.018;4.726;2022-11-27T14:28:51;46419.75;;;-144.79;100.00
19827;BME280;10074;52.018;4.726;2022-11-27T14:33:53;46423.78;;;-144.79;100.00
19827;BME280;10074;52.018;4.726;2022-11-27T14:38:53;46415.75;;;-144.79;100.00
19827;BME280;10074;52.018;4.726;2022-11-27T14:44:03;46415.75;;;-144.79;100.00
19827;BME280;10074;52.018;4.726;2022-11-27T14:49:04;46407.72;;;-144.79;100.00
19827;BME280;10074;52.018;4.726;2022-11-27T14:54:09;46411.75;;;-144.79;100.00
19827;BME280;10074;52.018;4.726;2022-11-27T14:59:21;46411.75;;;-144.79;100.00
19827;BME280;10074;52.018;4.726;2022-11-27T15:04:28;46389.69;;;-144.79;100.00
19827;BME280;10074;52.018;4.726;2022-11-27T15:09:29;46385.69;;;-144.79;100.00
19827;BME280;10074;52.018;4.726;2022-11-27T15:14:30;46369.63;;;-144.79;100.00
19827;BME280;10074;52.018;4.726;2022-11-27T15:19:35;46361.63;;;-144.79;100.00
19827;BME280;10074;52.018;4.726;2022-11-27T15:24:36;46351.59;;;-144.79;100.00
19827;BME280;10074;52.018;4.726;2022-11-27T15:29:39;46341.56;;;-144.79;100.00
19827;BME280;10074;52.018;4.726;2022-11-27T15:34:40;46327.53;;;-144.79;100.00
19827;BME280;10074;52.018;4.726;2022-11-27T15:39:53;46331.53;;;-144.79;100.00
19827;BME280;10074;52.018;4.726;2022-11-27T15:44:55;46319.50;;;-144.79;100.00
19827;BME280;10074;52.018;4.726;2022-11-27T15:49:57;46321.50;;;-144.79;100.00
19827;BME280;10074;52.018;4.726;2022-11-27T15:54:58;46323.53;;;-144.79;100.00
19827;BME280;10074;52.018;4.726;2022-11-27T15:59:58;46319.50;;;-144.79;100.00
19827;BME280;10074;52.018;4.726;2022-11-27T16:04:59;46315.50;;;-144.79;100.00
19827;BME280;10074;52.018;4.726;2022-11-27T16:09:59;46313.50;;;-144.79;100.00
19827;BME280;10074;52.018;4.726;2022-11-27T16:15:00;46311.50;;;-144.79;100.00
19827;BME280;10074;52.018;4.726;2022-11-27T16:20:00;46307.47;;;-144.79;100.00
19827;BME280;10074;52.018;4.726;2022-11-27T16:25:01;46307.47;;;-144.79;100.00
19827;BME280;10074;52.018;4.726;2022-11-27T16:30:02;46307.47;;;-144.79;100.00
19827;BME280;10074;52.018;4.726;2022-11-27T16:35:03;46303.47;;;-144.79;100.00
19827;BME280;10074;52.018;4.726;2022-11-27T16:40:04;46315.50;;;-144.79;100.00
19827;BME280;10074;52.018;4.726;2022-11-27T16:45:05;46307.47;;;-144.79;100.00
19827;BME280;10074;52.018;4.726;2022-11-27T16:50:06;46315.50;;;-144.79;100.00
19827;BME280;10074;52.018;4.726;2022-11-27T16:55:08;46305.47;;;-144.79;100.00
19827;BME280;10074;52.018;4.726;2022-11-27T17:00:09;46309.47;;;-144.79;100.00
19827;BME280;10074;52.018;4.726;2022-11-27T17:05:09;46315.50;;;-144.79;100.00
19827;BME280;10074;52.018;4.726;2022-11-27T17:10:10;46313.50;;;-144.79;100.00
19827;BME280;10074;52.018;4.726;2022-11-27T17:15:10;46309.47;;;-144.79;100.00
19827;BME280;10074;52.018;4.726;2022-11-27T17:20:10;46317.50;;;-144.79;100.00
19827;BME280;10074;52.018;4.726;2022-11-27T17:25:11;46317.50;;;-144.79;100.00
19827;BME280;10074;52.018;4.726;2022-11-27T17:30:11;46325.53;;;-144.79;100.00
19827;BME280;10074;52.018;4.726;2022-11-27T17:35:12;46331.53;;;-144.79;100.00
19827;BME280;10074;52.018;4.726;2022-11-27T17:40:14;46315.50;;;-144.79;100.00
19827;BME280;10074;52.018;4.726;2022-11-27T17:45:15;46321.50;;;-144.79;100.00
19827;BME280;10074;52.018;4.726;2022-11-27T17:50:16;46311.50;;;-144.79;100.00
19827;BME280;10074;52.018;4.726;2022-11-27T17:55:16;46313.50;;;-144.79;100.00
19827;BME280;10074;52.018;4.726;2022-11-27T18:00:17;46319.50;;;-144.79;100.00
19827;BME280;10074;52.018;4.726;2022-11-27T18:05:17;46319.50;;;-144.79;100.00
19827;BME280;10074;52.018;4.726;2022-11-27T18:10:18;46317.50;;;-144.79;100.00
19827;BME280;10074;52.018;4.726;2022-11-27T18:15:19;46333.53;;;-144.79;100.00
19827;BME280;10074;52.018;4.726;2022-11-27T18:20:19;46353.59;;;-144.79;100.00
19827;BME280;10074;52.018;4.726;2022-11-27T18:25:20;46367.63;;;-144.79;100.00
19827;BME280;10074;52.018;4.726;2022-11-27T18:30:21;46395.69;;;-144.79;100.00
19827;BME280;10074;52.018;4.726;2022-11-27T18:35:21;46411.75;;;-144.79;100.00
19827;BME280;10074;52.018;4.726;2022-11-27T18:40:23;46421.78;;;-144.79;100.00
19827;BME280;10074;52.018;4.726;2022-11-27T18:45:23;46409.75;;;-144.79;100.00
19827;BME280;10074;52.018;4.726;2022-11-27T18:50:23;46417.75;;;-144.79;100.00
19827;BME280;10074;52.018;4.726;2022-11-27T18:55:24;46407.72;;;-144.79;100.00
19827;BME280;10074;52.018;4.726;2022-11-27T19:00:24;46419.75;;;-144.79;100.00
19827;BME280;10074;52.018;4.726;2022-11-27T19:05:24;46427.78;;;-144.79;100.00
19827;BME280;10074;52.018;4.726;2022-11-27T19:10:24;46415.75;;;-144.79;100.00
19827;BME280;10074;52.018;4.726;2022-11-27T19:15:25;46419.75;;;-144.79;100.00
19827;BME280;10074;52.018;4.726;2022-11-27T19:20:25;46405.72;;;-144.79;100.00
19827;BME280;10074;52.018;4.726;2022-11-27T19:25:28;46391.69;;;-144.79;100.00
19827;BME280;10074;52.018;4.726;2022-11-27T19:30:28;46375.66;;;-144.79;100.00
19827;BME280;10074;52.018;4.726;2022-11-27T19:35:30;46365.63;;;-144.79;100.00
19827;BME280;10074;52.018;4.726;2022-11-27T19:40:31;46359.59;;;-144.79;100.00
19827;BME280;10074;52.018;4.726;2022-11-27T19:45:34;46355.59;;;-144.79;100.00
19827;BME280;10074;52.018;4.726;2022-11-27T19:50:35;46347.56;;;-144.79;100.00
19827;BME280;10074;52.018;4.726;2022-11-27T19:55:35;46349.59;;;-144.79;100.00
19827;BME280;10074;52.018;4.726;2022-11-27T20:00:36;46335.53;;;-144.79;100.00
19827;BME280;10074;52.018;4.726;2022-11-27T20:05:36;46335.53;;;-144.79;100.00
19827;BME280;10074;52.018;4.726;2022-11-27T20:10:37;46335.53;;;-144.79;100.00
19827;BME280;10074;52.018;4.726;2022-11-27T20:15:38;46339.56;;;-144.79;100.00
19827;BME280;10074;52.018;4.726;2022-11-27T20:20:38;46343.56;;;-144.79;100.00
19827;BME280;10074;52.018;4.726;2022-11-27T20:25:39;46339.56;;;-144.79;100.00
19827;BME280;10074;52.018;4.726;2022-11-27T20:30:40;46337.56;;;-144.79;100.00
19827;BME280;10074;52.018;4.726;2022-11-27T20:35:43;46343.56;;;-144.79;100.00
19827;BME280;10074;52.018;4.726;2022-11-27T20:40:43;46337.56;;;-144.79;100.00
19827;BME280;10074;52.018;4.726;2022-11-27T20:45:44;46347.56;;;-144.79;100.00
19827;BME280;10074;52.018;4.726;2022-11-27T20:50:44;46343.56;;;-144.79;100.00
19827;BME280;10074;52.018;4.726;2022-11-27T20:55:45;46347.56;;;-144.79;100.00
19827;BME280;10074;52.018;4.726;2022-11-27T21:00:45;46347.56;;;-144.79;100.00
19827;BME280;10074;52.018;4.726;2022-11-27T21:05:46;46343.56;;;-144.79;100.00
19827;BME280;10074;52.018;4.726;2022-11-27T21:10:47;46353.59;;;-144.79;100.00
19827;BME280;10074;52.018;4.726;2022-11-27T21:15:49;46363.63;;;-144.79;100.00
19827;BME280;10074;52.018;4.726;2022-11-27T21:20:49;46381.66;;;-144.79;100.00
19827;BME280;10074;52.018;4.726;2022-11-27T21:25:49;46403.72;;;-144.79;100.00
19827;BME280;10074;52.018;4.726;2022-11-27T21:30:50;46415.75;;;-144.79;100.00
19827;BME280;10074;52.018;4.726;2022-11-27T21:35:53;46423.78;;;-144.79;100.00
19827;BME280;10074;52.018;4.726;2022-11-27T21:40:55;46421.78;;;-144.79;100.00
19827;BME280;10074;52.018;4.726;2022-11-27T21:45:55;46427.78;;;-144.79;100.00
19827;BME280;10074;52.018;4.726;2022-11-27T21:51:00;46423.78;;;-144.79;100.00
19827;BME280;10074;52.018;4.726;2022-11-27T21:56:04;46419.75;;;-144.79;100.00
19827;BME280;10074;52.018;4.726;2022-11-27T22:01:08;46429.78;;;-144.79;100.00
19827;BME280;10074;52.018;4.726;2022-11-27T22:06:11;46427.78;;;-144.79;100.00
19827;BME280;10074;52.018;4.726;2022-11-27T22:11:14;46427.78;;;-144.79;100.00
19827;BME280;10074;52.018;4.726;2022-11-27T22:16:20;46441.81;;;-144.79;100.00
19827;BME280;10074;52.018;4.726;2022-11-27T22:21:21;46443.81;;;-144.79;100.00
19827;BME280;10074;52.018;4.726;2022-11-27T22:26:22;46447.84;;;-144.79;100.00
19827;BME280;10074;52.018;4.726;2022-11-27T22:31:25;46441.81;;;-144.79;100.00
19827;BME280;10074;52.018;4.726;2022-11-27T22:36:29;46441.81;;;-144.79;100.00
19827;BME280;10074;52.018;4.726;2022-11-27T22:41:31;46445.84;;;-144.79;100.00
19827;BME280;10074;52.018;4.726;2022-11-27T22:46:33;46455.84;;;-144.79;100.00
19827;BME280;10074;52.018;4.726;2022-11-27T22:51:35;46455.84;;;-144.79;100.00
19827;BME280;10074;52.018;4.726;2022-11-27T22:56:36;46453.84;;;-144.79;100.00
19827;BME280;10074;52.018;4.726;2022-11-27T23:01:36;46457.88;;;-144.79;100.00
19827;BME280;10074;52.018;4.726;2022-11-27T23:06:37;46463.88;;;-144.79;100.00
19827;BME280;10074;52.018;4.726;2022-11-27T23:11:37;46461.88;;;-144.79;100.00
19827;BME280;10074;52.018;4.726;2022-11-27T23:16:37;46455.84;;;-144.79;100.00
19827;BME280;10074;52.018;4.726;2022-11-27T23:21:38;46457.88;;;-144.79;100.00
19827;BME280;10074;52.018;4.726;2022-11-27T23:26:38;46463.88;;;-144.79;100.00
19827;BME280;10074;52.018;4.726;2022-11-27T23:31:39;46465.88;;;-144.79;100.00
19827;BME280;10074;52.018;4.726;2022-11-27T23:36:39;46461.88;;;-144.79;100.00
19827;BME280;10074;52.018;4.726;2022-11-27T23:41:40;46467.88;;;-144.79;100.00
19827;BME280;10074;52.018;4.726;2022-11-27T23:46:41;46463.88;;;-144.79;100.00
19827;BME280;10074;52.018;4.726;2022-11-27T23:51:41;46467.88;;;-144.79;100.00
19827;BME280;10074;52.018;4.726;2022-11-27T23:56:41;46463.88;;;-144.79;100.00
